createdAt,value
2023-05-14T00:00:43.011Z,15.50
2023-05-14T00:03:45.624Z,15.43
2023-05-14T00:06:48.102Z,15.48
2023-05-14T00:09:50.490Z,15.34
2023-05-14T00:12:52.953Z,15.48
2023-05-14T00:15:55.628Z,15.53
2023-05-14T00:18:58.119Z,15.47
2023-05-14T00:22:00.674Z,15.44
2023-05-14T00:25:03.288Z,15.49
2023-05-14T00:28:05.925Z,15.60
2023-05-14T00:31:08.522Z,15.47
2023-05-14T00:34:11.060Z,15.41
2023-05-14T00:37:13.504Z,15.29
2023-05-14T00:40:16.024Z,15.62
2023-05-14T00:43:20.175Z,15.35
2023-05-14T00:46:22.818Z,15.29
2023-05-14T00:49:26.900Z,15.58
2023-05-14T00:52:29.712Z,15.39
2023-05-14T00:55:32.328Z,15.46
2023-05-14T00:58:34.739Z,15.50
2023-05-14T01:01:37.671Z,15.53
2023-05-14T01:04:40.373Z,15.50
2023-05-14T01:08:00.964Z,15.61
2023-05-14T01:11:03.624Z,15.61
2023-05-14T01:14:27.277Z,15.42
2023-05-14T01:17:33.055Z,15.36
2023-05-14T01:20:36.071Z,15.36
2023-05-14T01:23:38.484Z,15.45
2023-05-14T01:26:41.035Z,15.30
2023-05-14T01:29:55.593Z,15.36
2023-05-14T01:33:00.580Z,15.32
2023-05-14T01:36:04.046Z,15.23
2023-05-14T01:39:09.687Z,15.43
2023-05-14T01:42:12.288Z,15.33
2023-05-14T01:45:14.823Z,15.39
2023-05-14T01:48:17.325Z,15.47
2023-05-14T01:51:19.798Z,15.45
2023-05-14T01:54:22.562Z,15.37
2023-05-14T01:57:26.095Z,15.45
2023-05-14T02:00:28.576Z,15.35
2023-05-14T02:03:31.259Z,15.18
2023-05-14T02:06:34.001Z,15.36
2023-05-14T02:09:36.453Z,15.41
2023-05-14T02:12:38.870Z,15.39
2023-05-14T02:15:41.457Z,15.29
2023-05-14T02:18:43.915Z,15.29
2023-05-14T02:21:47.248Z,15.38
2023-05-14T02:24:51.465Z,15.34
2023-05-14T02:27:53.998Z,15.33
2023-05-14T02:31:01.290Z,15.39
2023-05-14T02:34:04.986Z,15.38
2023-05-14T02:37:07.453Z,15.30
2023-05-14T02:40:11.345Z,15.23
2023-05-14T02:43:13.920Z,15.38
2023-05-14T02:46:16.359Z,15.38
2023-05-14T02:49:18.776Z,15.40
2023-05-14T02:52:21.207Z,15.33
2023-05-14T02:55:26.484Z,15.55
2023-05-14T02:58:28.935Z,15.38
2023-05-14T03:01:31.613Z,15.34
2023-05-14T03:04:34.393Z,15.30
2023-05-14T03:07:36.886Z,15.31
2023-05-14T03:10:39.254Z,15.23
2023-05-14T03:13:41.670Z,15.35
2023-05-14T03:16:44.099Z,15.32
2023-05-14T03:19:47.612Z,15.33
2023-05-14T03:22:50.069Z,15.25
2023-05-14T03:25:52.714Z,15.30
2023-05-14T03:28:55.120Z,15.28
2023-05-14T03:31:57.592Z,15.43
2023-05-14T03:35:00.060Z,15.36
2023-05-14T03:38:02.512Z,15.36
2023-05-14T03:41:05.255Z,15.36
2023-05-14T03:44:07.673Z,15.39
2023-05-14T03:47:10.444Z,15.27
2023-05-14T03:50:12.917Z,15.34
2023-05-14T03:53:15.379Z,15.34
2023-05-14T03:56:17.864Z,15.21
2023-05-14T03:59:20.320Z,15.39
2023-05-14T04:02:22.732Z,15.50
2023-05-14T04:05:25.434Z,15.49
2023-05-14T04:08:27.937Z,15.53
2023-05-14T04:11:32.112Z,15.45
2023-05-14T04:14:35.484Z,15.49
2023-05-14T04:17:38.920Z,15.38
2023-05-14T04:20:41.346Z,15.35
2023-05-14T04:23:43.757Z,15.46
2023-05-14T04:26:46.175Z,15.45
2023-05-14T04:29:49.715Z,15.41
2023-05-14T04:32:52.283Z,15.58
2023-05-14T04:35:54.705Z,15.45
2023-05-14T04:38:57.199Z,15.57
2023-05-14T04:41:59.588Z,15.47
2023-05-14T04:45:02.097Z,15.51
2023-05-14T04:48:05.048Z,15.40
2023-05-14T04:51:07.671Z,15.45
2023-05-14T04:54:10.145Z,15.39
2023-05-14T04:57:12.531Z,15.46
2023-05-14T05:00:15.877Z,15.54
2023-05-14T05:03:18.476Z,15.64
2023-05-14T05:06:21.207Z,15.70
2023-05-14T05:09:23.693Z,15.48
2023-05-14T05:12:26.204Z,15.29
2023-05-14T05:15:28.620Z,15.52
2023-05-14T05:18:31.057Z,15.44
2023-05-14T05:21:33.602Z,15.47
2023-05-14T05:24:36.047Z,15.62
2023-05-14T05:27:38.906Z,15.37
2023-05-14T05:30:41.316Z,15.49
2023-05-14T05:33:44.025Z,15.66
2023-05-14T05:36:46.488Z,15.54
2023-05-14T05:39:49.535Z,15.78
2023-05-14T05:42:51.925Z,15.50
2023-05-14T05:45:54.660Z,15.54
2023-05-14T05:48:57.072Z,15.59
2023-05-14T05:51:59.505Z,15.62
2023-05-14T05:55:02.016Z,15.66
2023-05-14T05:58:04.697Z,15.62
2023-05-14T06:01:07.076Z,15.57
2023-05-14T06:04:10.181Z,15.58
2023-05-14T06:07:13.079Z,15.50
2023-05-14T06:10:15.638Z,15.49
2023-05-14T06:13:18.159Z,15.74
2023-05-14T06:16:21.085Z,15.70
2023-05-14T06:19:23.539Z,15.54
2023-05-14T06:22:25.920Z,15.68
2023-05-14T06:25:28.522Z,15.66
2023-05-14T06:28:30.915Z,15.67
2023-05-14T06:31:33.298Z,15.62
2023-05-14T06:34:35.842Z,15.75
2023-05-14T06:37:38.403Z,15.62
2023-05-14T06:40:40.985Z,15.64
2023-05-14T06:43:43.451Z,15.65
2023-05-14T06:46:45.887Z,15.44
2023-05-14T06:49:48.369Z,15.57
2023-05-14T06:52:50.784Z,15.59
2023-05-14T06:55:53.257Z,15.64
2023-05-14T06:58:55.690Z,15.67
2023-05-14T07:01:58.170Z,15.67
2023-05-14T07:05:00.911Z,15.52
2023-05-14T07:08:03.423Z,15.53
2023-05-14T07:11:05.853Z,15.71
2023-05-14T07:14:08.295Z,15.84
2023-05-14T07:17:11.298Z,15.70
2023-05-14T07:20:13.778Z,15.90
2023-05-14T07:23:18.501Z,15.81
2023-05-14T07:26:24.588Z,15.77
2023-05-14T07:29:27.055Z,15.72
2023-05-14T07:32:29.485Z,15.85
2023-05-14T07:35:31.980Z,15.94
2023-05-14T07:38:34.448Z,15.91
2023-05-14T07:41:36.888Z,16.09
2023-05-14T07:44:39.462Z,15.91
2023-05-14T07:47:42.140Z,15.97
2023-05-14T07:50:45.454Z,15.97
2023-05-14T07:53:47.879Z,15.98
2023-05-14T07:56:50.360Z,15.98
2023-05-14T07:59:52.908Z,16.04
2023-05-14T08:02:56.115Z,16.02
2023-05-14T08:05:58.680Z,16.06
2023-05-14T08:09:01.074Z,16.07
2023-05-14T08:12:03.830Z,16.16
2023-05-14T08:15:07.900Z,16.09
2023-05-14T08:18:10.351Z,16.09
2023-05-14T08:21:12.792Z,16.09
2023-05-14T08:24:15.169Z,16.26
2023-05-14T08:27:17.565Z,16.15
2023-05-14T08:30:20.858Z,16.13
2023-05-14T08:33:23.470Z,16.19
2023-05-14T08:36:25.884Z,16.05
2023-05-14T08:39:28.388Z,16.11
2023-05-14T08:42:31.419Z,16.19
2023-05-14T08:45:35.174Z,16.08
2023-05-14T08:48:40.927Z,16.25
2023-05-14T08:51:47.117Z,16.30
2023-05-14T08:54:51.297Z,16.29
2023-05-14T08:57:53.836Z,16.30
2023-05-14T09:00:56.328Z,16.39
2023-05-14T09:03:58.831Z,16.43
2023-05-14T09:07:02.843Z,16.31
2023-05-14T09:10:05.891Z,16.41
2023-05-14T09:13:10.270Z,16.23
2023-05-14T09:16:12.795Z,16.29
2023-05-14T09:19:16.004Z,16.31
2023-05-14T09:22:19.167Z,16.49
2023-05-14T09:25:27.059Z,16.28
2023-05-14T09:28:30.730Z,16.22
2023-05-14T09:31:33.911Z,16.34
2023-05-14T09:34:38.103Z,16.36
2023-05-14T09:37:48.805Z,16.14
2023-05-14T09:40:51.224Z,16.24
2023-05-14T09:43:53.956Z,16.15
2023-05-14T09:46:56.851Z,16.12
2023-05-14T09:49:59.353Z,16.25
2023-05-14T09:53:01.975Z,16.27
2023-05-14T09:56:04.656Z,16.29
2023-05-14T09:59:07.045Z,16.32
2023-05-14T10:02:23.233Z,16.30
2023-05-14T10:05:26.927Z,16.20
2023-05-14T10:08:34.264Z,16.40
2023-05-14T10:11:38.246Z,16.26
2023-05-14T10:14:41.609Z,16.41
2023-05-14T10:17:49.413Z,16.26
2023-05-14T10:21:04.501Z,16.10
2023-05-14T10:24:08.519Z,16.16
2023-05-14T10:27:10.932Z,16.16
2023-05-14T10:30:13.717Z,16.13
2023-05-14T10:33:18.465Z,16.43
2023-05-14T10:36:20.937Z,16.22
2023-05-14T10:39:24.196Z,16.33
2023-05-14T10:42:33.460Z,16.44
2023-05-14T10:45:36.405Z,16.22
2023-05-14T10:48:43.725Z,16.28
2023-05-14T10:51:49.562Z,16.26
2023-05-14T10:54:57.017Z,16.14
2023-05-14T10:58:01.418Z,16.18
2023-05-14T11:01:06.145Z,16.19
2023-05-14T11:04:09.336Z,16.02
2023-05-14T11:07:12.500Z,16.35
2023-05-14T11:10:19.957Z,16.42
2023-05-14T11:13:22.450Z,16.28
2023-05-14T11:16:29.295Z,16.04
2023-05-14T11:19:31.708Z,16.22
2023-05-14T11:22:35.130Z,16.39
2023-05-14T11:25:37.839Z,16.38
2023-05-14T11:28:40.537Z,16.09
2023-05-14T11:31:43.119Z,16.20
2023-05-14T11:34:46.238Z,16.14
2023-05-14T11:37:52.671Z,16.15
2023-05-14T11:40:59.514Z,16.16
2023-05-14T11:44:02.009Z,16.00
2023-05-14T11:47:05.245Z,16.14
2023-05-14T11:50:09.404Z,16.19
2023-05-14T11:53:12.280Z,16.09
2023-05-14T11:56:14.766Z,16.09
2023-05-14T11:59:18.554Z,15.96
2023-05-14T12:02:21.202Z,16.08
2023-05-14T12:05:23.767Z,16.10
2023-05-14T12:08:30.427Z,16.15
2023-05-14T12:11:33.045Z,16.11
2023-05-14T12:14:38.400Z,15.81
2023-05-14T12:17:41.466Z,16.27
2023-05-14T12:20:52.178Z,16.01
2023-05-14T12:24:01.089Z,16.26
2023-05-14T12:27:03.766Z,16.05
2023-05-14T12:30:20.558Z,15.93
2023-05-14T12:33:24.087Z,16.02
2023-05-14T12:36:26.540Z,16.02
2023-05-14T12:39:30.372Z,16.20
2023-05-14T12:42:33.180Z,15.96
2023-05-14T12:45:35.691Z,15.91
2023-05-14T12:48:38.131Z,16.03
2023-05-14T12:51:41.105Z,16.02
2023-05-14T12:54:43.799Z,15.98
2023-05-14T12:57:46.218Z,15.86
2023-05-14T13:00:48.779Z,15.93
2023-05-14T13:03:51.277Z,15.91
2023-05-14T13:06:53.722Z,15.97
2023-05-14T13:09:56.553Z,15.84
2023-05-14T13:12:59.267Z,15.89
2023-05-14T13:16:01.693Z,15.96
2023-05-14T13:19:04.133Z,15.94
2023-05-14T13:22:06.588Z,15.86
2023-05-14T13:25:09.483Z,15.80
2023-05-14T13:28:11.955Z,15.99
2023-05-14T13:31:14.991Z,15.86
2023-05-14T13:34:17.499Z,15.71
2023-05-14T13:37:20.416Z,15.88
2023-05-14T13:40:22.913Z,15.72
2023-05-14T13:43:25.328Z,15.80
2023-05-14T13:46:27.839Z,15.82
2023-05-14T13:49:30.375Z,15.79
2023-05-14T13:52:32.865Z,15.85
2023-05-14T13:55:35.416Z,15.82
2023-05-14T13:58:37.816Z,15.75
2023-05-14T14:01:40.517Z,15.73
2023-05-14T14:04:43.044Z,15.82
2023-05-14T14:07:46.990Z,15.84
2023-05-14T14:10:50.094Z,15.75
2023-05-14T14:13:53.095Z,15.82
2023-05-14T14:16:55.612Z,15.77
2023-05-14T14:19:57.998Z,15.83
2023-05-14T14:23:00.512Z,15.74
2023-05-14T14:26:02.972Z,15.76
2023-05-14T14:29:05.443Z,15.81
2023-05-14T14:32:08.008Z,15.77
2023-05-14T14:35:11.947Z,15.73
2023-05-14T14:38:14.660Z,15.74
2023-05-14T14:41:17.161Z,15.64
2023-05-14T14:44:19.686Z,15.93
2023-05-14T14:47:22.211Z,15.63
2023-05-14T14:50:24.580Z,15.73
2023-05-14T14:53:27.161Z,15.70
2023-05-14T14:56:29.586Z,15.59
2023-05-14T14:59:32.026Z,15.65
2023-05-14T15:02:34.871Z,15.63
2023-05-14T15:05:37.703Z,15.62
2023-05-14T15:08:40.419Z,15.59
2023-05-14T15:11:42.862Z,15.57
2023-05-14T15:14:45.292Z,15.53
2023-05-14T15:17:47.909Z,15.67
2023-05-14T15:20:50.787Z,15.67
2023-05-14T15:23:53.219Z,15.64
2023-05-14T15:26:55.697Z,15.74
2023-05-14T15:29:58.112Z,15.83
2023-05-14T15:33:00.718Z,15.58
2023-05-14T15:36:03.296Z,15.60
2023-05-14T15:39:05.957Z,15.50
2023-05-14T15:42:08.438Z,15.62
2023-05-14T15:45:12.543Z,15.57
2023-05-14T15:48:15.092Z,15.69
2023-05-14T15:51:17.555Z,15.58
2023-05-14T15:54:20.072Z,15.42
2023-05-14T15:57:22.597Z,15.39
2023-05-14T16:00:25.382Z,15.64
2023-05-14T16:03:28.138Z,15.66
2023-05-14T16:06:31.144Z,15.62
2023-05-14T16:09:33.660Z,15.44
2023-05-14T16:12:36.212Z,15.51
2023-05-14T16:15:39.956Z,15.40
2023-05-14T16:18:43.310Z,15.47
2023-05-14T16:21:45.768Z,15.54
2023-05-14T16:24:48.241Z,15.52
2023-05-14T16:27:50.791Z,15.39
2023-05-14T16:30:53.307Z,15.47
2023-05-14T16:33:55.926Z,15.41
2023-05-14T16:36:59.656Z,15.47
2023-05-14T16:40:02.227Z,15.52
2023-05-14T16:43:04.752Z,15.58
2023-05-14T16:46:07.218Z,15.43
2023-05-14T16:49:09.832Z,15.37
2023-05-14T16:52:12.302Z,15.50
2023-05-14T16:55:14.885Z,15.48
2023-05-14T16:58:17.359Z,15.34
2023-05-14T17:01:19.992Z,15.30
2023-05-14T17:04:24.978Z,15.25
2023-05-14T17:07:27.579Z,15.46
2023-05-14T17:10:30.991Z,15.59
2023-05-14T17:13:34.086Z,15.41
2023-05-14T17:16:38.792Z,15.40
2023-05-14T17:19:41.462Z,15.59
2023-05-14T17:22:44.047Z,15.46
2023-05-14T17:25:46.409Z,15.25
2023-05-14T17:28:48.879Z,15.37
2023-05-14T17:31:51.346Z,15.30
2023-05-14T17:34:53.872Z,15.44
2023-05-14T17:37:57.576Z,15.26
2023-05-14T17:41:02.083Z,15.29
2023-05-14T17:44:04.761Z,15.54
2023-05-14T17:47:08.409Z,15.38
2023-05-14T17:50:12.214Z,15.17
2023-05-14T17:53:14.852Z,15.29
2023-05-14T17:56:18.586Z,15.31
2023-05-14T17:59:22.942Z,15.53
2023-05-14T18:02:26.610Z,15.32
2023-05-14T18:05:31.645Z,15.31
2023-05-14T18:08:34.122Z,15.36
2023-05-14T18:11:36.848Z,15.43
2023-05-14T18:14:39.322Z,15.31
2023-05-14T18:17:43.722Z,15.25
2023-05-14T18:20:46.151Z,15.25
2023-05-14T18:23:49.243Z,15.36
2023-05-14T18:26:51.780Z,15.36
2023-05-14T18:29:54.489Z,15.32
2023-05-14T18:32:57.135Z,15.35
2023-05-14T18:35:59.759Z,15.36
2023-05-14T18:39:02.294Z,15.30
2023-05-14T18:42:06.209Z,15.35
2023-05-14T18:45:09.070Z,15.36
2023-05-14T18:48:11.533Z,15.34
2023-05-14T18:51:14.020Z,15.15
2023-05-14T18:54:16.603Z,15.29
2023-05-14T18:57:19.057Z,15.29
2023-05-14T19:00:21.536Z,15.22
2023-05-14T19:03:24.151Z,15.34
2023-05-14T19:06:26.765Z,15.41
2023-05-14T19:09:29.324Z,15.49
2023-05-14T19:12:31.963Z,15.22
2023-05-14T19:15:34.472Z,15.16
2023-05-14T19:18:37.001Z,15.34
2023-05-14T19:21:39.494Z,15.21
2023-05-14T19:24:42.137Z,15.17
2023-05-14T19:27:45.584Z,15.35
2023-05-14T19:30:48.145Z,15.27
2023-05-14T19:33:51.133Z,15.32
2023-05-14T19:36:53.782Z,15.26
2023-05-14T19:39:56.197Z,15.48
2023-05-14T19:42:58.664Z,15.28
2023-05-14T19:46:01.658Z,15.17
2023-05-14T19:49:04.298Z,15.26
2023-05-14T19:52:06.818Z,15.26
2023-05-14T19:55:09.457Z,15.40
2023-05-14T19:58:12.182Z,15.25
2023-05-14T20:01:15.216Z,15.17
2023-05-14T20:04:17.954Z,15.26
2023-05-14T20:07:20.548Z,15.27
2023-05-14T20:10:23.708Z,15.39
2023-05-14T20:13:26.571Z,15.34
2023-05-14T20:16:29.094Z,15.23
2023-05-14T20:19:31.749Z,15.25
2023-05-14T20:22:34.224Z,15.27
2023-05-14T20:25:36.707Z,15.30
2023-05-14T20:28:39.316Z,15.14
2023-05-14T20:31:41.860Z,15.35
2023-05-14T20:34:44.311Z,15.21
2023-05-14T20:37:47.334Z,15.07
2023-05-14T20:40:49.852Z,15.28
2023-05-14T20:43:52.321Z,15.33
2023-05-14T20:46:54.809Z,15.22
2023-05-14T20:49:57.278Z,15.29
2023-05-14T20:52:59.729Z,15.29
2023-05-14T20:56:02.234Z,15.23
2023-05-14T20:59:04.625Z,15.05
2023-05-14T21:02:07.219Z,15.20
2023-05-14T21:05:09.739Z,15.36
2023-05-14T21:08:12.173Z,15.30
2023-05-14T21:11:14.600Z,15.25
2023-05-14T21:14:17.035Z,15.19
2023-05-14T21:17:19.555Z,15.39
2023-05-14T21:20:22.049Z,15.08
2023-05-14T21:23:24.708Z,15.28
2023-05-14T21:26:30.728Z,15.26
2023-05-14T21:29:33.137Z,15.18
2023-05-14T21:32:35.598Z,15.19
2023-05-14T21:35:38.088Z,15.26
2023-05-14T21:38:40.845Z,15.17
2023-05-14T21:41:43.291Z,15.09
2023-05-14T21:44:45.684Z,15.06
2023-05-14T21:47:48.151Z,15.16
2023-05-14T21:50:50.700Z,15.23
2023-05-14T21:53:53.200Z,15.27
2023-05-14T21:56:55.671Z,15.14
2023-05-14T21:59:58.333Z,15.20
2023-05-14T22:03:00.847Z,15.20
2023-05-14T22:06:03.529Z,15.21
2023-05-14T22:09:05.995Z,15.31
2023-05-14T22:12:08.620Z,15.10
2023-05-14T22:15:11.891Z,15.41
2023-05-14T22:18:15.637Z,15.21
2023-05-14T22:21:18.077Z,15.32
2023-05-14T22:24:20.983Z,15.06
2023-05-14T22:27:23.376Z,15.41
2023-05-14T22:30:25.793Z,15.28
2023-05-14T22:33:28.254Z,15.16
2023-05-14T22:36:30.687Z,15.17
2023-05-14T22:39:33.069Z,15.17
2023-05-14T22:42:35.490Z,15.23
2023-05-14T22:45:37.983Z,15.22
2023-05-14T22:48:40.391Z,15.16
2023-05-14T22:51:42.799Z,15.20
2023-05-14T22:54:46.674Z,15.30
2023-05-14T22:57:49.101Z,15.08
2023-05-14T23:00:51.488Z,15.08
2023-05-14T23:03:53.859Z,15.20
2023-05-14T23:06:56.291Z,15.19
2023-05-14T23:09:58.679Z,15.18
2023-05-14T23:13:01.311Z,15.12
2023-05-14T23:16:04.131Z,15.05
2023-05-14T23:19:06.843Z,15.40
2023-05-14T23:22:09.457Z,15.14
2023-05-14T23:25:11.936Z,15.20
2023-05-14T23:28:14.368Z,15.16
2023-05-14T23:31:16.763Z,15.18
2023-05-14T23:34:19.197Z,15.17
2023-05-14T23:37:21.716Z,15.26
2023-05-14T23:40:24.111Z,15.27
2023-05-14T23:43:26.545Z,15.21
2023-05-14T23:46:29.214Z,15.08
2023-05-14T23:49:31.795Z,15.11
2023-05-14T23:52:34.292Z,15.16
2023-05-14T23:55:36.777Z,15.19
2023-05-14T23:58:39.259Z,15.10
